Terminal Aerodrome Forecast
Issued by NWS

Home | Current Version | Previous Version | Text Only | Print | Product List | Glossary On
Versions: 1 2 3 4 5 6 7 8 9 10 11 12
000
FTUS44 KOUN 071743
TAFGAG
TAF
KGAG 071743Z 0718/0818 06012KT P6SM OVC040
     FM072000 04014KT P6SM SCT015 OVC050
     FM080000 02012KT P6SM BKN015
     FM081300 36009KT P6SM BKN250=

USA.gov is the U.S. government's official web portal to all federal, state and local government web resources and services.